Legend Of The Seas — C6SL5 — position and weather

sailwx.info

Track history (hours):
 
Tides and Currents Weather Stations Pressure Air Temp Water Temp Dewpoint Dewpoint Depression Visibility Wind Speed Wind Dir Waves Ship Positions

Legend Of The Seas

Operator: Royal Caribbean Cruises Ltd

Last reported at 2018-Sep-18 00:45 UTC. Time now 2018-Sep-24 21:49 UTC.
Position N 44°01' E 014°17'.

Type: Passenger vessel. MMSI: 311378000.

Date/timePositionNaut miles runAvg speedWind from/ knotsBaromVisibWave heightAir tempDewpointWater temp
2018-Sep-18 00:45N 44°01' E 014°17'416.4
2018-Sep-18 00:30N 44°02' E 014°12'816.0
2018-Sep-18 00:00N 44°07' E 014°03'916.3
2018-Sep-17 23:26N 44°15' E 013°55'816.2
2018-Sep-17 22:55N 44°21' E 013°49'716.2
2018-Sep-17 22:30N 44°27' E 013°43'716.5
2018-Sep-17 22:03N 44°33' E 013°37'116.4
2018-Sep-17 22:00N 44°34' E 013°36'816.3
2018-Sep-17 21:30N 44°40' E 013°30'716.3
2018-Sep-17 21:03N 44°47' E 013°25'116.4
2018-Sep-17 21:00N 44°47' E 013°24'816.5
2018-Sep-17 20:30N 44°54' E 013°18'716.1
2018-Sep-17 20:03N 44°59' E 013°11'115.8
2018-Sep-17 20:00N 45°00' E 013°10'815.7
2018-Sep-17 19:30N 45°06' E 013°02'715.7
2018-Sep-17 19:03N 45°11' E 012°55'115.5
2018-Sep-17 19:00N 45°11' E 012°55'815.5
2018-Sep-17 18:30N 45°16' E 012°46'715.1
2018-Sep-17 18:03N 45°20' E 012°38'115.1
2018-Sep-17 18:00N 45°21' E 012°37'714.3
2018-Sep-17 17:30N 45°24' E 012°28'4 8.7
2018-Sep-17 17:03N 45°26' E 012°24'0 6.8
2018-Sep-17 17:00N 45°26' E 012°23'2 4.5
2018-Sep-17 16:31N 45°26' E 012°20'1 2.5
2018-Sep-17 16:03N 45°26' E 012°19'0 0.0
2018-Sep-17 16:00N 45°26' E 012°19'0 0.0
2018-Sep-17 15:30N 45°26' E 012°19'0 0.0
2018-Sep-17 15:03N 45°26' E 012°19'0 0.1
2018-Sep-17 15:00N 45°26' E 012°19'0 0.0
2018-Sep-17 14:30N 45°26' E 012°19'0 0.0
2018-Sep-17 14:00N 45°26' E 012°19'0 0.0
2018-Sep-17 13:24N 45°26' E 012°19'0 0.0
2018-Sep-17 13:03N 45°26' E 012°19'0 0.0
2018-Sep-17 13:00N 45°26' E 012°19'0 0.0
2018-Sep-17 12:30N 45°26' E 012°19'0 0.0
2018-Sep-17 12:03N 45°26' E 012°19'0 0.1
2018-Sep-17 12:00N 45°26' E 012°19'0 0.0
2018-Sep-17 11:30N 45°26' E 012°19'0 0.0
2018-Sep-17 11:03N 45°26' E 012°19'0 0.1
2018-Sep-17 11:00N 45°26' E 012°19'0 0.0
2018-Sep-17 10:30N 45°26' E 012°19'0 0.0
2018-Sep-17 10:00N 45°26' E 012°19'0 0.0
2018-Sep-17 09:30N 45°26' E 012°19'0 0.0
2018-Sep-17 08:48N 45°26' E 012°19'0 0.0
2018-Sep-17 08:30N 45°26' E 012°19'0 0.0
2018-Sep-17 08:03N 45°26' E 012°19'0 0.0
2018-Sep-17 08:00N 45°26' E 012°19'0 0.0
2018-Sep-17 07:30N 45°26' E 012°19'0 0.0
2018-Sep-17 07:00N 45°26' E 012°19'0 0.0
2018-Sep-17 06:30N 45°26' E 012°19'0 0.0
2018-Sep-17 06:03N 45°26' E 012°19'0 0.1
2018-Sep-17 06:00N 45°26' E 012°19'0 0.0
2018-Sep-17 05:30N 45°26' E 012°19'1 2.3
2018-Sep-17 05:03N 45°26' E 012°20'0 5.8
2018-Sep-17 05:00N 45°26' E 012°20'2 4.6
2018-Sep-17 04:30N 45°26' E 012°23'4 7.9
2018-Sep-17 04:04N 45°24' E 012°28'112.9
2018-Sep-17 04:01N 45°24' E 012°29'714.8
2018-Sep-17 03:31N 45°20' E 012°38'511.8
2018-Sep-17 03:03N 45°20' E 012°45'113.5
2018-Sep-17 03:00N 45°21' E 012°46'612.7
2018-Sep-17 02:30N 45°25' E 012°53'1 2.6
2018-Sep-17 02:03N 45°26' E 012°54'0 0.4
2018-Sep-17 02:00N 45°26' E 012°54'0 0.4
2018-Sep-17 01:30N 45°26' E 012°54'0 0.4
2018-Sep-17 01:03N 45°26' E 012°54'0 0.5
2018-Sep-17 01:00N 45°26' E 012°54'4 7.1
2018-Sep-17 00:30N 45°28' E 012°59'4 8.3
2018-Sep-17 00:04N 45°29' E 013°04'0 8.2
2018-Sep-17 00:00N 45°29' E 013°04'4 8.3
2018-Sep-16 23:30N 45°31' E 013°10'4 8.1
2018-Sep-16 23:03N 45°32' E 013°14'0 8.2
2018-Sep-16 23:01N 45°33' E 013°15'4 8.1
2018-Sep-16 22:31N 45°34' E 013°20'4 8.1
2018-Sep-16 22:03N 45°36' E 013°25'0 8.0
2018-Sep-16 22:00N 45°36' E 013°26'4 8.0
2018-Sep-16 21:30N 45°37' E 013°31'3 7.6
2018-Sep-16 21:03N 45°37' E 013°36'0 7.4
2018-Sep-16 21:00N 45°37' E 013°36'5 9.1
2018-Sep-16 20:30N 45°34' E 013°41'2 3.2
2018-Sep-16 19:46N 45°33' E 013°44'0 0.0
2018-Sep-16 19:28N 45°33' E 013°44'0 0.0
2018-Sep-16 19:01N 45°33' E 013°44'0 0.0
2018-Sep-16 18:55N 45°33' E 013°44'0 0.0
2018-Sep-16 18:28N 45°33' E 013°44'0 0.0
2018-Sep-16 17:58N 45°33' E 013°44'0 0.0
2018-Sep-16 17:25N 45°33' E 013°44'0 0.0
2018-Sep-16 16:55N 45°33' E 013°44'0 0.0
2018-Sep-16 16:28N 45°33' E 013°44'0 0.0
2018-Sep-16 16:01N 45°33' E 013°44'0 0.0
2018-Sep-16 15:40N 45°33' E 013°44'0 0.0
2018-Sep-16 15:25N 45°33' E 013°44'0 0.0
2018-Sep-16 15:01N 45°33' E 013°44'0 0.0
2018-Sep-16 14:58N 45°33' E 013°44'0 0.0
2018-Sep-16 13:55N 45°33' E 013°44'0 0.0
2018-Sep-16 13:25N 45°33' E 013°44'0 0.0
2018-Sep-16 12:58N 45°33' E 013°44'0 0.0
2018-Sep-16 12:28N 45°33' E 013°44'0 0.0
2018-Sep-16 11:58N 45°33' E 013°44'0 0.0
2018-Sep-16 11:22N 45°33' E 013°44'0 0.0
2018-Sep-16 11:01N 45°33' E 013°44'0 0.1
2018-Sep-16 10:58N 45°33' E 013°44'0 0.0
2018-Sep-16 10:28N 45°33' E 013°44'0 0.0
2018-Sep-16 09:52N 45°33' E 013°44'0 0.0
2018-Sep-16 09:28N 45°33' E 013°44'0 0.0
2018-Sep-16 08:58N 45°33' E 013°44'0 0.0
2018-Sep-16 08:25N 45°33' E 013°44'0 0.0
2018-Sep-16 08:01N 45°33' E 013°44'0 0.1
2018-Sep-16 07:58N 45°33' E 013°44'0 0.0
2018-Sep-16 07:22N 45°33' E 013°44'0 0.0
2018-Sep-16 07:01N 45°33' E 013°44'0 0.0
2018-Sep-16 06:58N 45°33' E 013°44'0 0.0
2018-Sep-16 06:22N 45°33' E 013°44'0 0.0
2018-Sep-16 06:01N 45°33' E 013°44'0 0.0
2018-Sep-16 05:52N 45°33' E 013°44'1 1.4
2018-Sep-16 05:30N 45°33' E 013°43'2 4.9
2018-Sep-16 05:03N 45°34' E 013°40'112.5
2018-Sep-16 05:00N 45°34' E 013°39'713.5
2018-Sep-16 04:30N 45°34' E 013°30'715.0
2018-Sep-16 04:03N 45°30' E 013°22'114.9
2018-Sep-16 04:00N 45°29' E 013°21'815.0
2018-Sep-16 03:30N 45°24' E 013°13'714.6
2018-Sep-16 03:03N 45°17' E 013°13'115.3
2018-Sep-16 03:00N 45°17' E 013°13'815.2
2018-Sep-16 02:30N 45°09' E 013°15'714.7
2018-Sep-16 02:03N 45°03' E 013°17'114.7
2018-Sep-16 02:00N 45°02' E 013°18'714.7
2018-Sep-16 01:30N 44°55' E 013°22'715.0
2018-Sep-16 01:03N 44°50' E 013°28'115.0
2018-Sep-16 01:00N 44°49' E 013°28'714.8
2018-Sep-16 00:30N 44°44' E 013°35'715.0
2018-Sep-16 00:03N 44°38' E 013°40'114.8
2018-Sep-16 00:00N 44°37' E 013°40'814.9
2018-Sep-15 23:30N 44°31' E 013°46'715.2
2018-Sep-15 23:03N 44°25' E 013°51'115.4
2018-Sep-15 23:00N 44°24' E 013°52'715.2
2018-Sep-15 22:30N 44°18' E 013°56'714.8
2018-Sep-15 22:03N 44°12' E 014°01'114.8
2018-Sep-15 21:59N 44°11' E 014°02'1014.8
2018-Sep-15 21:18N 44°03' E 014°10'415.0
2018-Sep-15 21:03N 44°00' E 014°14'115.1
2018-Sep-15 21:00N 43°60' E 014°14'  
2018-Sep-12 17:31N 37°17' E 023°39'118.9
2018-Sep-12 17:27N 37°19' E 023°39'719.1
2018-Sep-12 17:03N 37°26' E 023°40'119.1
2018-Sep-12 17:00N 37°27' E 023°40'1019.2
2018-Sep-12 16:30N 37°36' E 023°42'818.8
2018-Sep-12 16:03N 37°44' E 023°39'119.3
2018-Sep-12 16:00N 37°45' E 023°39'918.2
2018-Sep-12 15:30N 37°54' E 023°37'2 4.8
2018-Sep-12 15:03N 37°56' E 023°38'0 0.2
2018-Sep-12 14:58N 37°56' E 023°38'0 0.0
2018-Sep-12 14:28N 37°56' E 023°38'0 0.0
2018-Sep-12 13:58N 37°56' E 023°38'0 0.0
2018-Sep-12 13:28N 37°56' E 023°38'0 0.0
2018-Sep-12 13:01N 37°56' E 023°38'0 0.2
2018-Sep-12 12:58N 37°56' E 023°38'0 0.0
2018-Sep-12 12:28N 37°56' E 023°38'0 0.0
2018-Sep-12 12:01N 37°56' E 023°38'0 0.0
2018-Sep-12 11:58N 37°56' E 023°38'0 0.0
2018-Sep-12 11:28N 37°56' E 023°38'0 0.0
2018-Sep-12 11:01N 37°56' E 023°38'0 0.0
2018-Sep-12 10:58N 37°56' E 023°38'0 0.0
2018-Sep-12 10:28N 37°56' E 023°38'0 0.0
2018-Sep-12 10:01N 37°56' E 023°38'0 0.0
2018-Sep-12 09:58N 37°56' E 023°38'0 0.0
2018-Sep-12 09:28N 37°56' E 023°38'0 0.0
2018-Sep-12 09:01N 37°56' E 023°38'0 0.2
2018-Sep-12 08:58N 37°56' E 023°38'0 0.0
2018-Sep-12 08:28N 37°56' E 023°38'0 0.0
2018-Sep-12 08:01N 37°56' E 023°38'0 0.0
2018-Sep-12 07:58N 37°56' E 023°38'0 0.0
2018-Sep-12 07:28N 37°56' E 023°38'0 0.0
2018-Sep-12 07:01N 37°56' E 023°38'0 0.0
2018-Sep-12 06:58N 37°56' E 023°38'0 0.0
2018-Sep-12 06:28N 37°56' E 023°38'0 0.0
2018-Sep-12 06:01N 37°56' E 023°38'0 0.0
2018-Sep-12 05:58N 37°56' E 023°38'0 0.0
2018-Sep-12 05:28N 37°56' E 023°38'0 0.4
2018-Sep-12 05:03N 37°56' E 023°38'0 6.8
2018-Sep-12 05:01N 37°56' E 023°37'3 6.1
2018-Sep-12 04:30N 37°53' E 023°38'612.3
2018-Sep-12 04:03N 37°48' E 023°41'112.3
2018-Sep-12 04:00N 37°48' E 023°41'612.1
2018-Sep-12 03:30N 37°42' E 023°44'511.5
2018-Sep-12 03:03N 37°38' E 023°49'111.9
2018-Sep-12 03:00N 37°38' E 023°49'711.9
2018-Sep-12 02:27N 37°35' E 023°56'6 9.3
2018-Sep-12 01:47N 37°33' E 024°04'32 4.7
2018-Sep-11 18:59N 37°32' E 024°44'4 7.6
2018-Sep-11 18:29N 37°33' E 024°48'3 7.7
2018-Sep-11 18:03N 37°34' E 024°53'0 7.5
2018-Sep-11 18:00N 37°34' E 024°53'4 7.6
2018-Sep-11 17:30N 37°32' E 024°58'4 7.9
2018-Sep-11 17:03N 37°31' E 025°02'0 7.8
2018-Sep-11 17:00N 37°31' E 025°02'4 8.0
2018-Sep-11 16:30N 37°30' E 025°07'4 8.1
2018-Sep-11 16:03N 37°29' E 025°12'0 8.3
2018-Sep-11 16:00N 37°29' E 025°12'4 8.0
2018-Sep-11 15:30N 37°28' E 025°17'2 4.0
2018-Sep-11 15:03N 37°28' E 025°19'0 0.1
2018-Sep-11 15:00N 37°28' E 025°19'0 0.0
2018-Sep-11 14:30N 37°28' E 025°19'0 0.0
2018-Sep-11 14:00N 37°28' E 025°19'0 0.0
2018-Sep-11 13:30N 37°28' E 025°19'0 0.0
2018-Sep-11 13:03N 37°28' E 025°19'0 0.1
2018-Sep-11 13:00N 37°28' E 025°19'0 0.0
2018-Sep-11 12:30N 37°28' E 025°19'0 0.0
2018-Sep-11 12:03N 37°28' E 025°19'0 0.0
2018-Sep-11 12:00N 37°28' E 025°19'0 0.0
2018-Sep-11 11:30N 37°28' E 025°19'0 0.0
2018-Sep-11 11:03N 37°28' E 025°19'0 0.0
2018-Sep-11 11:00N 37°28' E 025°19'0 0.0
2018-Sep-11 10:30N 37°28' E 025°19'0 0.0
2018-Sep-11 10:03N 37°28' E 025°19'0 0.0
2018-Sep-11 10:00N 37°28' E 025°19'0 0.0
2018-Sep-11 09:30N 37°28' E 025°19'0 0.0
2018-Sep-11 09:03N 37°28' E 025°19'0 0.1
2018-Sep-11 09:00N 37°28' E 025°19'0 0.0
2018-Sep-11 08:30N 37°28' E 025°19'0 0.0
2018-Sep-11 08:03N 37°28' E 025°19'0 0.1
2018-Sep-11 08:00N 37°28' E 025°19'0 0.0
2018-Sep-11 07:30N 37°28' E 025°19'0 0.0
2018-Sep-11 07:03N 37°28' E 025°19'0 0.1
2018-Sep-11 07:00N 37°28' E 025°19'0 0.0
2018-Sep-11 06:30N 37°28' E 025°19'0 0.0
2018-Sep-11 06:03N 37°28' E 025°19'0 0.0
2018-Sep-11 06:00N 37°28' E 025°19'0 0.0
2018-Sep-11 05:30N 37°28' E 025°19'0 0.0
2018-Sep-11 05:03N 37°28' E 025°19'0 0.0
2018-Sep-11 05:00N 37°28' E 025°19'0 0.0
2018-Sep-11 04:30N 37°28' E 025°19'0 0.0
2018-Sep-11 04:03N 37°28' E 025°19'0 0.0
2018-Sep-11 04:00N 37°28' E 025°19'0 0.0
2018-Sep-11 03:30N 37°28' E 025°19'0 0.0
2018-Sep-11 03:03N 37°28' E 025°19'0 0.0
2018-Sep-11 03:00N 37°28' E 025°19'1 1.8
2018-Sep-11 02:30N 37°28' E 025°18'512.2
2018-Sep-11 02:03N 37°27' E 025°11'113.3
2018-Sep-11 02:01N 37°27' E 025°11'713.4
2018-Sep-11 01:31N 37°21' E 025°06'613.7
2018-Sep-11 01:03N 37°16' E 025°03'113.4
2018-Sep-11 01:00N 37°15' E 025°02'613.1
2018-Sep-11 00:30N 37°09' E 024°59'  
Track history (hours):
 
Tides and Currents Weather Stations Pressure Air Temp Water Temp Dewpoint Dewpoint Depression Visibility Wind Speed Wind Dir Waves Ship Positions

Legend Of The Seas

Operator: Royal Caribbean Cruises Ltd

Last reported at 2018-Sep-18 00:45 UTC. Time now 2018-Sep-24 21:49 UTC.
Position N 44°01' E 014°17'.

Type: Passenger vessel. MMSI: 311378000.

Date/timePositionNaut miles runAvg speedWind from/ knotsBaromVisibWave heightAir tempDewpointWater temp
2018-Sep-18 00:45N 44°01' E 014°17'416.4
2018-Sep-18 00:30N 44°02' E 014°12'816.0
2018-Sep-18 00:00N 44°07' E 014°03'916.3
2018-Sep-17 23:26N 44°15' E 013°55'816.2
2018-Sep-17 22:55N 44°21' E 013°49'716.2
2018-Sep-17 22:30N 44°27' E 013°43'716.5
2018-Sep-17 22:03N 44°33' E 013°37'116.4
2018-Sep-17 22:00N 44°34' E 013°36'816.3
2018-Sep-17 21:30N 44°40' E 013°30'716.3
2018-Sep-17 21:03N 44°47' E 013°25'116.4
2018-Sep-17 21:00N 44°47' E 013°24'816.5
2018-Sep-17 20:30N 44°54' E 013°18'716.1
2018-Sep-17 20:03N 44°59' E 013°11'115.8
2018-Sep-17 20:00N 45°00' E 013°10'815.7
2018-Sep-17 19:30N 45°06' E 013°02'715.7
2018-Sep-17 19:03N 45°11' E 012°55'115.5
2018-Sep-17 19:00N 45°11' E 012°55'815.5
2018-Sep-17 18:30N 45°16' E 012°46'715.1
2018-Sep-17 18:03N 45°20' E 012°38'115.1
2018-Sep-17 18:00N 45°21' E 012°37'714.3
2018-Sep-17 17:30N 45°24' E 012°28'4 8.7
2018-Sep-17 17:03N 45°26' E 012°24'0 6.8
2018-Sep-17 17:00N 45°26' E 012°23'2 4.5
2018-Sep-17 16:31N 45°26' E 012°20'1 2.5
2018-Sep-17 16:03N 45°26' E 012°19'0 0.0
2018-Sep-17 16:00N 45°26' E 012°19'0 0.0
2018-Sep-17 15:30N 45°26' E 012°19'0 0.0
2018-Sep-17 15:03N 45°26' E 012°19'0 0.1
2018-Sep-17 15:00N 45°26' E 012°19'0 0.0
2018-Sep-17 14:30N 45°26' E 012°19'0 0.0
2018-Sep-17 14:00N 45°26' E 012°19'0 0.0
2018-Sep-17 13:24N 45°26' E 012°19'0 0.0
2018-Sep-17 13:03N 45°26' E 012°19'0 0.0
2018-Sep-17 13:00N 45°26' E 012°19'0 0.0
2018-Sep-17 12:30N 45°26' E 012°19'0 0.0
2018-Sep-17 12:03N 45°26' E 012°19'0 0.1
2018-Sep-17 12:00N 45°26' E 012°19'0 0.0
2018-Sep-17 11:30N 45°26' E 012°19'0 0.0
2018-Sep-17 11:03N 45°26' E 012°19'0 0.1
2018-Sep-17 11:00N 45°26' E 012°19'0 0.0
2018-Sep-17 10:30N 45°26' E 012°19'0 0.0
2018-Sep-17 10:00N 45°26' E 012°19'0 0.0
2018-Sep-17 09:30N 45°26' E 012°19'0 0.0
2018-Sep-17 08:48N 45°26' E 012°19'0 0.0
2018-Sep-17 08:30N 45°26' E 012°19'0 0.0
2018-Sep-17 08:03N 45°26' E 012°19'0 0.0
2018-Sep-17 08:00N 45°26' E 012°19'0 0.0
2018-Sep-17 07:30N 45°26' E 012°19'0 0.0
2018-Sep-17 07:00N 45°26' E 012°19'0 0.0
2018-Sep-17 06:30N 45°26' E 012°19'0 0.0
2018-Sep-17 06:03N 45°26' E 012°19'0 0.1
2018-Sep-17 06:00N 45°26' E 012°19'0 0.0
2018-Sep-17 05:30N 45°26' E 012°19'1 2.3
2018-Sep-17 05:03N 45°26' E 012°20'0 5.8
2018-Sep-17 05:00N 45°26' E 012°20'2 4.6
2018-Sep-17 04:30N 45°26' E 012°23'4 7.9
2018-Sep-17 04:04N 45°24' E 012°28'112.9
2018-Sep-17 04:01N 45°24' E 012°29'714.8
2018-Sep-17 03:31N 45°20' E 012°38'511.8
2018-Sep-17 03:03N 45°20' E 012°45'113.5
2018-Sep-17 03:00N 45°21' E 012°46'612.7
2018-Sep-17 02:30N 45°25' E 012°53'1 2.6
2018-Sep-17 02:03N 45°26' E 012°54'0 0.4
2018-Sep-17 02:00N 45°26' E 012°54'0 0.4
2018-Sep-17 01:30N 45°26' E 012°54'0 0.4
2018-Sep-17 01:03N 45°26' E 012°54'0 0.5
2018-Sep-17 01:00N 45°26' E 012°54'4 7.1
2018-Sep-17 00:30N 45°28' E 012°59'4 8.3
2018-Sep-17 00:04N 45°29' E 013°04'0 8.2
2018-Sep-17 00:00N 45°29' E 013°04'4 8.3
2018-Sep-16 23:30N 45°31' E 013°10'4 8.1
2018-Sep-16 23:03N 45°32' E 013°14'0 8.2
2018-Sep-16 23:01N 45°33' E 013°15'4 8.1
2018-Sep-16 22:31N 45°34' E 013°20'4 8.1
2018-Sep-16 22:03N 45°36' E 013°25'0 8.0
2018-Sep-16 22:00N 45°36' E 013°26'4 8.0
2018-Sep-16 21:30N 45°37' E 013°31'3 7.6
2018-Sep-16 21:03N 45°37' E 013°36'0 7.4
2018-Sep-16 21:00N 45°37' E 013°36'5 9.1
2018-Sep-16 20:30N 45°34' E 013°41'2 3.2
2018-Sep-16 19:46N 45°33' E 013°44'0 0.0
2018-Sep-16 19:28N 45°33' E 013°44'0 0.0
2018-Sep-16 19:01N 45°33' E 013°44'0 0.0
2018-Sep-16 18:55N 45°33' E 013°44'0 0.0
2018-Sep-16 18:28N 45°33' E 013°44'0 0.0
2018-Sep-16 17:58N 45°33' E 013°44'0 0.0
2018-Sep-16 17:25N 45°33' E 013°44'0 0.0
2018-Sep-16 16:55N 45°33' E 013°44'0 0.0
2018-Sep-16 16:28N 45°33' E 013°44'0 0.0
2018-Sep-16 16:01N 45°33' E 013°44'0 0.0
2018-Sep-16 15:40N 45°33' E 013°44'0 0.0
2018-Sep-16 15:25N 45°33' E 013°44'0 0.0
2018-Sep-16 15:01N 45°33' E 013°44'0 0.0
2018-Sep-16 14:58N 45°33' E 013°44'0 0.0
2018-Sep-16 13:55N 45°33' E 013°44'0 0.0
2018-Sep-16 13:25N 45°33' E 013°44'0 0.0
2018-Sep-16 12:58N 45°33' E 013°44'0 0.0
2018-Sep-16 12:28N 45°33' E 013°44'0 0.0
2018-Sep-16 11:58N 45°33' E 013°44'0 0.0
2018-Sep-16 11:22N 45°33' E 013°44'0 0.0
2018-Sep-16 11:01N 45°33' E 013°44'0 0.1
2018-Sep-16 10:58N 45°33' E 013°44'0 0.0
2018-Sep-16 10:28N 45°33' E 013°44'0 0.0
2018-Sep-16 09:52N 45°33' E 013°44'0 0.0
2018-Sep-16 09:28N 45°33' E 013°44'0 0.0
2018-Sep-16 08:58N 45°33' E 013°44'0 0.0
2018-Sep-16 08:25N 45°33' E 013°44'0 0.0
2018-Sep-16 08:01N 45°33' E 013°44'0 0.1
2018-Sep-16 07:58N 45°33' E 013°44'0 0.0
2018-Sep-16 07:22N 45°33' E 013°44'0 0.0
2018-Sep-16 07:01N 45°33' E 013°44'0 0.0
2018-Sep-16 06:58N 45°33' E 013°44'0 0.0
2018-Sep-16 06:22N 45°33' E 013°44'0 0.0
2018-Sep-16 06:01N 45°33' E 013°44'0 0.0
2018-Sep-16 05:52N 45°33' E 013°44'1 1.4
2018-Sep-16 05:30N 45°33' E 013°43'2 4.9
2018-Sep-16 05:03N 45°34' E 013°40'112.5
2018-Sep-16 05:00N 45°34' E 013°39'713.5
2018-Sep-16 04:30N 45°34' E 013°30'715.0
2018-Sep-16 04:03N 45°30' E 013°22'114.9
2018-Sep-16 04:00N 45°29' E 013°21'815.0
2018-Sep-16 03:30N 45°24' E 013°13'714.6
2018-Sep-16 03:03N 45°17' E 013°13'115.3
2018-Sep-16 03:00N 45°17' E 013°13'815.2
2018-Sep-16 02:30N 45°09' E 013°15'714.7
2018-Sep-16 02:03N 45°03' E 013°17'114.7
2018-Sep-16 02:00N 45°02' E 013°18'714.7
2018-Sep-16 01:30N 44°55' E 013°22'715.0
2018-Sep-16 01:03N 44°50' E 013°28'115.0
2018-Sep-16 01:00N 44°49' E 013°28'714.8
2018-Sep-16 00:30N 44°44' E 013°35'715.0
2018-Sep-16 00:03N 44°38' E 013°40'114.8
2018-Sep-16 00:00N 44°37' E 013°40'814.9
2018-Sep-15 23:30N 44°31' E 013°46'715.2
2018-Sep-15 23:03N 44°25' E 013°51'115.4
2018-Sep-15 23:00N 44°24' E 013°52'715.2
2018-Sep-15 22:30N 44°18' E 013°56'714.8
2018-Sep-15 22:03N 44°12' E 014°01'114.8
2018-Sep-15 21:59N 44°11' E 014°02'1014.8
2018-Sep-15 21:18N 44°03' E 014°10'415.0
2018-Sep-15 21:03N 44°00' E 014°14'115.1
2018-Sep-15 21:00N 43°60' E 014°14'  
2018-Sep-12 17:31N 37°17' E 023°39'118.9
2018-Sep-12 17:27N 37°19' E 023°39'719.1
2018-Sep-12 17:03N 37°26' E 023°40'119.1
2018-Sep-12 17:00N 37°27' E 023°40'1019.2
2018-Sep-12 16:30N 37°36' E 023°42'818.8
2018-Sep-12 16:03N 37°44' E 023°39'119.3
2018-Sep-12 16:00N 37°45' E 023°39'918.2
2018-Sep-12 15:30N 37°54' E 023°37'2 4.8
2018-Sep-12 15:03N 37°56' E 023°38'0 0.2
2018-Sep-12 14:58N 37°56' E 023°38'0 0.0
2018-Sep-12 14:28N 37°56' E 023°38'0 0.0
2018-Sep-12 13:58N 37°56' E 023°38'0 0.0
2018-Sep-12 13:28N 37°56' E 023°38'0 0.0
2018-Sep-12 13:01N 37°56' E 023°38'0 0.2
2018-Sep-12 12:58N 37°56' E 023°38'0 0.0
2018-Sep-12 12:28N 37°56' E 023°38'0 0.0
2018-Sep-12 12:01N 37°56' E 023°38'0 0.0
2018-Sep-12 11:58N 37°56' E 023°38'0 0.0
2018-Sep-12 11:28N 37°56' E 023°38'0 0.0
2018-Sep-12 11:01N 37°56' E 023°38'0 0.0
2018-Sep-12 10:58N 37°56' E 023°38'0 0.0
2018-Sep-12 10:28N 37°56' E 023°38'0 0.0
2018-Sep-12 10:01N 37°56' E 023°38'0 0.0
2018-Sep-12 09:58N 37°56' E 023°38'0 0.0
2018-Sep-12 09:28N 37°56' E 023°38'0 0.0
2018-Sep-12 09:01N 37°56' E 023°38'0 0.2
2018-Sep-12 08:58N 37°56' E 023°38'0 0.0
2018-Sep-12 08:28N 37°56' E 023°38'0 0.0
2018-Sep-12 08:01N 37°56' E 023°38'0 0.0
2018-Sep-12 07:58N 37°56' E 023°38'0 0.0
2018-Sep-12 07:28N 37°56' E 023°38'0 0.0
2018-Sep-12 07:01N 37°56' E 023°38'0 0.0
2018-Sep-12 06:58N 37°56' E 023°38'0 0.0
2018-Sep-12 06:28N 37°56' E 023°38'0 0.0
2018-Sep-12 06:01N 37°56' E 023°38'0 0.0
2018-Sep-12 05:58N 37°56' E 023°38'0 0.0
2018-Sep-12 05:28N 37°56' E 023°38'0 0.4
2018-Sep-12 05:03N 37°56' E 023°38'0 6.8
2018-Sep-12 05:01N 37°56' E 023°37'3 6.1
2018-Sep-12 04:30N 37°53' E 023°38'612.3
2018-Sep-12 04:03N 37°48' E 023°41'112.3
2018-Sep-12 04:00N 37°48' E 023°41'612.1
2018-Sep-12 03:30N 37°42' E 023°44'511.5
2018-Sep-12 03:03N 37°38' E 023°49'111.9
2018-Sep-12 03:00N 37°38' E 023°49'711.9
2018-Sep-12 02:27N 37°35' E 023°56'6 9.3
2018-Sep-12 01:47N 37°33' E 024°04'32 4.7
2018-Sep-11 18:59N 37°32' E 024°44'4 7.6
2018-Sep-11 18:29N 37°33' E 024°48'3 7.7
2018-Sep-11 18:03N 37°34' E 024°53'0 7.5
2018-Sep-11 18:00N 37°34' E 024°53'4 7.6
2018-Sep-11 17:30N 37°32' E 024°58'4 7.9
2018-Sep-11 17:03N 37°31' E 025°02'0 7.8
2018-Sep-11 17:00N 37°31' E 025°02'4 8.0
2018-Sep-11 16:30N 37°30' E 025°07'4 8.1
2018-Sep-11 16:03N 37°29' E 025°12'0 8.3
2018-Sep-11 16:00N 37°29' E 025°12'4 8.0
2018-Sep-11 15:30N 37°28' E 025°17'2 4.0
2018-Sep-11 15:03N 37°28' E 025°19'0 0.1
2018-Sep-11 15:00N 37°28' E 025°19'0 0.0
2018-Sep-11 14:30N 37°28' E 025°19'0 0.0
2018-Sep-11 14:00N 37°28' E 025°19'0 0.0
2018-Sep-11 13:30N 37°28' E 025°19'0 0.0
2018-Sep-11 13:03N 37°28' E 025°19'0 0.1
2018-Sep-11 13:00N 37°28' E 025°19'0 0.0
2018-Sep-11 12:30N 37°28' E 025°19'0 0.0
2018-Sep-11 12:03N 37°28' E 025°19'0 0.0
2018-Sep-11 12:00N 37°28' E 025°19'0 0.0
2018-Sep-11 11:30N 37°28' E 025°19'0 0.0
2018-Sep-11 11:03N 37°28' E 025°19'0 0.0
2018-Sep-11 11:00N 37°28' E 025°19'0 0.0
2018-Sep-11 10:30N 37°28' E 025°19'0 0.0
2018-Sep-11 10:03N 37°28' E 025°19'0 0.0
2018-Sep-11 10:00N 37°28' E 025°19'0 0.0
2018-Sep-11 09:30N 37°28' E 025°19'0 0.0
2018-Sep-11 09:03N 37°28' E 025°19'0 0.1
2018-Sep-11 09:00N 37°28' E 025°19'0 0.0
2018-Sep-11 08:30N 37°28' E 025°19'0 0.0
2018-Sep-11 08:03N 37°28' E 025°19'0 0.1
2018-Sep-11 08:00N 37°28' E 025°19'0 0.0
2018-Sep-11 07:30N 37°28' E 025°19'0 0.0
2018-Sep-11 07:03N 37°28' E 025°19'0 0.1
2018-Sep-11 07:00N 37°28' E 025°19'0 0.0
2018-Sep-11 06:30N 37°28' E 025°19'0 0.0
2018-Sep-11 06:03N 37°28' E 025°19'0 0.0
2018-Sep-11 06:00N 37°28' E 025°19'0 0.0
2018-Sep-11 05:30N 37°28' E 025°19'0 0.0
2018-Sep-11 05:03N 37°28' E 025°19'0 0.0
2018-Sep-11 05:00N 37°28' E 025°19'0 0.0
2018-Sep-11 04:30N 37°28' E 025°19'0 0.0
2018-Sep-11 04:03N 37°28' E 025°19'0 0.0
2018-Sep-11 04:00N 37°28' E 025°19'0 0.0
2018-Sep-11 03:30N 37°28' E 025°19'0 0.0
2018-Sep-11 03:03N 37°28' E 025°19'0 0.0
2018-Sep-11 03:00N 37°28' E 025°19'1 1.8
2018-Sep-11 02:30N 37°28' E 025°18'512.2
2018-Sep-11 02:03N 37°27' E 025°11'113.3
2018-Sep-11 02:01N 37°27' E 025°11'713.4
2018-Sep-11 01:31N 37°21' E 025°06'613.7
2018-Sep-11 01:03N 37°16' E 025°03'113.4
2018-Sep-11 01:00N 37°15' E 025°02'613.1
2018-Sep-11 00:30N 37°09' E 024°59'  

Dump ship's entire track history